Time;durP1;ratioP1;P1;durP2;ratioP2;P2;SDS_P1;SDS_P2;PMS_P1;PMS_P2;Temp;Humidity;BMP_temperature;BMP_pressure;BME280_temperature;BME280_humidity;BME280_pressure;Samples;Min_cycle;Max_cycle;Signal;HPM_P1;HPM_P2
2021/11/09 00:01:49;;;;;;;7.40;4.07;;;;;;;-0.12;87.95;98551.59;6269093;28;20576;-72
2021/11/09 00:04:54;;;;;;;5.47;3.80;;;;;;;-0.11;87.67;98559.34;6269973;28;20191;-71
2021/11/09 00:07:59;;;;;;;5.33;3.20;;;;;;;-0.10;87.73;98558.44;6270445;28;20198;-72
2021/11/09 00:11:02;;;;;;;5.20;3.47;;;;;;;-0.14;88.26;98556.81;6268519;28;20227;-72
2021/11/09 00:14:05;;;;;;;6.80;3.60;;;;;;;-0.14;87.99;98555.97;6252598;28;20214;-70
2021/11/09 00:17:07;;;;;;;7.43;3.83;;;;;;;-0.10;88.37;98555.81;6301698;28;20199;-71
2021/11/09 00:20:12;;;;;;;5.60;3.40;;;;;;;-0.11;88.06;98559.34;6245356;28;20576;-72
2021/11/09 00:23:15;;;;;;;5.87;3.53;;;;;;;-0.14;88.27;98566.34;6267197;28;20207;-72
2021/11/09 00:26:20;;;;;;;5.90;3.40;;;;;;;-0.14;88.56;98568.94;6268329;28;20206;-71
2021/11/09 00:29:22;;;;;;;8.23;3.47;;;;;;;-0.15;88.25;98552.50;6269189;28;20187;-71
2021/11/09 00:32:24;;;;;;;10.03;3.53;;;;;;;-0.16;88.26;98562.91;6269669;28;20194;-71
2021/11/09 00:35:29;;;;;;;8.53;3.40;;;;;;;-0.18;88.65;98565.53;6268412;28;20202;-71
2021/11/09 00:38:32;;;;;;;8.03;3.43;;;;;;;-0.16;88.27;98566.38;6269475;28;20217;-72
2021/11/09 00:41:34;;;;;;;12.00;3.70;;;;;;;-0.16;87.95;98573.28;6269058;28;20622;-71
2021/11/09 00:44:37;;;;;;;5.43;3.10;;;;;;;-0.17;88.18;98567.25;6269528;28;20221;-71
2021/11/09 00:47:40;;;;;;;4.60;3.60;;;;;;;-0.16;88.41;98573.28;6269013;28;20191;-71
2021/11/09 00:50:44;;;;;;;7.10;3.03;;;;;;;-0.15;88.31;98570.66;6268383;28;20262;-71
2021/11/09 00:53:47;;;;;;;6.33;3.33;;;;;;;-0.15;88.16;98581.03;6267973;28;20575;-71
2021/11/09 00:56:49;;;;;;;5.23;2.90;;;;;;;-0.13;88.76;98579.28;6268656;28;20198;-71
2021/11/09 00:59:52;;;;;;;7.83;3.50;;;;;;;-0.07;88.61;98586.91;6267905;28;20253;-71
2021/11/09 01:02:55;;;;;;;6.77;3.00;;;;;;;-0.04;88.41;98573.00;6267224;28;20196;-71
2021/11/09 01:05:58;;;;;;;4.97;2.87;;;;;;;-0.03;88.75;98580.75;6267625;28;20223;-71
2021/11/09 01:09:01;;;;;;;5.73;2.83;;;;;;;-0.01;88.33;98578.13;6267038;28;20762;-72
2021/11/09 01:12:04;;;;;;;6.57;3.13;;;;;;;0.04;88.62;98581.47;6269011;28;20257;-72
2021/11/09 01:15:07;;;;;;;3.93;2.97;;;;;;;0.09;88.68;98586.56;6268645;28;20220;-72
2021/11/09 01:18:09;;;;;;;4.37;2.83;;;;;;;0.15;88.71;98591.59;6268310;28;20676;-71
2021/11/09 01:21:14;;;;;;;3.70;2.53;;;;;;;0.19;88.77;98591.50;6268593;28;20289;-71
2021/11/09 01:24:18;;;;;;;4.87;3.00;;;;;;;0.27;88.65;98594.75;6258894;28;20204;-70
2021/11/09 01:27:20;;;;;;;5.30;3.40;;;;;;;0.35;88.69;98595.41;6253943;28;20194;-72
2021/11/09 01:30:22;;;;;;;4.10;2.37;;;;;;;0.41;88.65;98594.38;6267605;28;20726;-71
2021/11/09 01:33:25;;;;;;;6.27;2.93;;;;;;;0.48;88.54;98600.28;6300294;28;20568;-71
2021/11/09 01:36:28;;;;;;;7.03;3.27;;;;;;;0.57;88.44;98600.06;6268411;28;20558;-72
2021/11/09 01:39:31;;;;;;;5.17;3.00;;;;;;;0.65;88.50;98595.50;6241171;28;20231;-71
2021/11/09 01:42:35;;;;;;;6.27;3.33;;;;;;;0.75;88.78;98591.78;6265394;28;20195;-72
2021/11/09 01:45:38;;;;;;;6.67;3.23;;;;;;;0.81;88.61;98596.81;6268363;28;20187;-71
2021/11/09 01:48:42;;;;;;;6.07;3.10;;;;;;;0.87;88.55;98599.25;6267832;28;20233;-72
2021/11/09 01:51:44;;;;;;;6.20;3.57;;;;;;;0.94;88.66;98597.34;6268358;28;20474;-72
2021/11/09 01:54:46;;;;;;;6.60;3.47;;;;;;;0.99;88.85;98595.47;6267749;28;20341;-72
2021/11/09 01:57:49;;;;;;;7.33;3.67;;;;;;;1.04;88.56;98589.25;6267000;28;20927;-72
2021/11/09 02:00:55;;;;;;;8.10;3.83;;;;;;;1.17;88.41;98591.50;6266188;28;20215;-71
2021/11/09 02:04:01;;;;;;;6.23;3.57;;;;;;;1.24;89.05;98588.69;6268268;28;20176;-72
2021/11/09 02:07:03;;;;;;;5.97;3.50;;;;;;;1.31;88.93;98591.94;6266765;28;20261;-71
2021/11/09 02:10:06;;;;;;;7.83;3.60;;;;;;;1.39;88.61;98600.41;6266222;28;20203;-71
2021/11/09 02:13:08;;;;;;;8.10;4.00;;;;;;;1.47;88.87;98601.88;6267914;28;20256;-72
2021/11/09 02:16:12;;;;;;;6.07;3.57;;;;;;;1.56;88.75;98592.97;6267566;28;20203;-71
2021/11/09 02:19:14;;;;;;;5.00;3.10;;;;;;;1.64;89.44;98595.31;6267696;28;20277;-71
2021/11/09 02:22:17;;;;;;;8.00;3.47;;;;;;;1.71;88.73;98599.44;6268026;28;20194;-71
2021/11/09 02:25:22;;;;;;;6.83;2.90;;;;;;;1.77;88.82;98604.47;6267459;28;20560;-71
2021/11/09 02:28:25;;;;;;;6.90;3.27;;;;;;;1.83;88.90;98599.06;6267682;28;20268;-71
2021/11/09 02:31:30;;;;;;;7.63;3.63;;;;;;;1.89;89.06;98596.31;6267618;28;20183;-71
2021/11/09 02:34:33;;;;;;;7.17;4.30;;;;;;;1.94;88.78;98599.59;6267776;28;20203;-74
2021/11/09 02:37:36;;;;;;;7.30;3.40;;;;;;;2.02;88.76;98605.41;6267276;28;20215;-70
2021/11/09 02:40:38;;;;;;;10.80;3.67;;;;;;;2.10;88.62;98602.56;6266143;28;20216;-71
2021/11/09 02:43:40;;;;;;;8.10;3.40;;;;;;;2.16;88.55;98605.84;6267876;28;20745;-72
2021/11/09 02:46:50;;;;;;;10.57;3.40;;;;;;;2.22;88.68;98599.56;6267203;28;20195;-70
2021/11/09 02:50:06;;;;;;;6.77;3.23;;;;;;;2.30;88.81;98612.34;6267691;28;20556;-71
2021/11/09 02:53:28;;;;;;;8.27;2.90;;;;;;;2.34;88.76;98604.38;6271585;28;20192;-72
2021/11/09 02:56:39;;;;;;;9.07;3.60;;;;;;;2.41;88.62;98615.44;6272112;28;20185;-71
2021/11/09 03:02:52;;;;;;;6.37;2.93;;;;;;;2.49;88.43;98623.91;6270854;28;20213;-71
2021/11/09 03:06:17;;;;;;;7.77;3.17;;;;;;;2.54;88.45;98624.56;6272513;28;20176;-75
2021/11/09 03:09:24;;;;;;;7.70;2.90;;;;;;;2.59;88.61;98630.50;6270330;28;20175;-71
2021/11/09 03:12:32;;;;;;;4.17;3.00;;;;;;;2.64;88.62;98632.94;6271716;28;20317;-72
2021/11/09 03:15:35;;;;;;;4.33;2.87;;;;;;;2.67;87.98;98631.09;6270083;28;20223;-72
2021/11/09 03:18:44;;;;;;;8.17;3.37;;;;;;;2.72;nan;98633.53;6270018;28;20725;-71
2021/11/09 03:45:32;;;;;;;7.83;3.40;;;;;;;2.98;87.42;98664.81;6270509;28;20195;-71
2021/11/09 03:48:36;;;;;;;5.00;2.60;;;;;;;3.01;87.52;98669.03;6270784;28;20271;-71
2021/11/09 03:51:39;;;;;;;5.63;2.80;;;;;;;3.05;87.56;98676.72;6269524;28;20185;-71
2021/11/09 03:54:42;;;;;;;5.47;2.70;;;;;;;3.07;87.46;98680.13;6269667;28;20196;-72
2021/11/09 03:57:49;;;;;;;4.63;2.50;;;;;;;3.11;87.13;98676.50;6270900;28;20228;-72
2021/11/09 04:01:00;;;;;;;5.30;3.07;;;;;;;3.13;86.95;98686.88;6269887;28;20204;-71
2021/11/09 04:04:23;;;;;;;5.30;2.67;;;;;;;3.15;87.14;98682.47;6269955;28;20227;-71
2021/11/09 04:11:01;;;;;;;4.77;2.83;;;;;;;3.15;87.41;98696.38;6270071;28;20258;-72
2021/11/09 04:14:04;;;;;;;3.53;2.10;;;;;;;3.15;87.36;98698.13;6269971;28;20198;-72
2021/11/09 04:17:13;;;;;;;2.77;2.23;;;;;;;3.16;87.55;98700.69;6270242;28;20207;-72
2021/11/09 04:20:45;;;;;;;3.30;1.90;;;;;;;3.15;87.45;98698.13;6270224;28;20212;-71
2021/11/09 04:24:18;;;;;;;2.17;1.90;;;;;;;3.15;87.49;98698.97;6269650;28;20198;-71
2021/11/09 04:30:57;;;;;;;2.60;2.13;;;;;;;3.19;87.35;98699.72;6269178;28;20185;-72
2021/11/09 05:09:41;;;;;;;4.77;2.40;;;;;;;3.19;87.07;98733.63;6268065;28;20204;-72
2021/11/09 05:12:44;;;;;;;4.03;2.37;;;;;;;3.19;86.97;98731.03;6268695;28;20235;-72
2021/11/09 05:15:46;;;;;;;2.30;2.10;;;;;;;3.19;87.47;98734.50;6268378;28;20203;-71
2021/11/09 05:18:49;;;;;;;5.00;2.53;;;;;;;3.21;86.99;98737.00;6259331;28;20203;-72
2021/11/09 05:21:51;;;;;;;5.67;2.13;;;;;;;3.21;87.19;98745.69;6248275;28;20673;-71
2021/11/09 05:24:52;;;;;;;3.83;2.10;;;;;;;3.21;87.15;98748.31;6268789;28;20202;-72
2021/11/09 05:27:56;;;;;;;4.63;2.17;;;;;;;3.22;87.05;98746.53;6266935;28;20690;-71
2021/11/09 05:30:58;;;;;;;3.73;2.10;;;;;;;3.21;87.25;98756.13;6243772;28;20191;-71
2021/11/09 05:34:01;;;;;;;2.80;2.20;;;;;;;3.22;87.10;98755.22;6265589;28;20563;-71
2021/11/09 05:37:04;;;;;;;3.77;2.23;;;;;;;3.23;87.02;98762.16;6267826;28;20623;-71
2021/11/09 05:40:07;;;;;;;3.30;2.03;;;;;;;3.25;87.16;98764.72;6267083;28;20228;-71
2021/11/09 05:43:09;;;;;;;4.30;2.10;;;;;;;3.24;86.98;98766.47;6266573;28;20566;-72
2021/11/09 05:46:12;;;;;;;5.87;2.63;;;;;;;3.23;86.98;98767.38;6267071;28;20193;-71
2021/11/09 05:49:15;;;;;;;1.90;1.80;;;;;;;3.23;87.55;98769.97;6268234;28;20715;-71
2021/11/09 05:52:17;;;;;;;5.37;2.67;;;;;;;3.26;86.89;98779.47;6266817;28;20701;-71
2021/11/09 05:55:20;;;;;;;3.57;2.30;;;;;;;3.28;86.80;98782.88;6268435;28;20659;-71
2021/11/09 05:58:22;;;;;;;4.63;2.93;;;;;;;3.26;87.06;98788.16;6266296;28;20216;-71
2021/11/09 06:01:25;;;;;;;2.60;1.93;;;;;;;3.25;87.07;98794.25;6268025;28;20622;-71
2021/11/09 06:04:27;;;;;;;7.60;3.23;;;;;;;3.25;87.05;98807.31;6268158;28;20200;-70
2021/11/09 06:07:29;;;;;;;5.87;3.50;;;;;;;3.26;86.88;98810.78;6266572;28;20204;-70
2021/11/09 06:10:32;;;;;;;5.50;2.97;;;;;;;3.25;86.73;98817.75;6266488;28;20234;-72
2021/11/09 06:13:34;;;;;;;4.10;2.80;;;;;;;3.27;87.07;98822.91;6283228;28;20910;-72
2021/11/09 06:16:37;;;;;;;4.67;2.53;;;;;;;3.30;86.82;98828.84;6267447;28;20279;-71
2021/11/09 06:19:39;;;;;;;6.63;2.90;;;;;;;3.32;86.86;98827.06;6267248;28;20560;-71
2021/11/09 06:22:41;;;;;;;6.33;2.97;;;;;;;3.36;86.24;98840.88;6241645;28;20281;-72
2021/11/09 06:25:45;;;;;;;5.57;2.80;;;;;;;3.40;86.70;98839.00;6264995;28;20203;-70
2021/11/09 06:28:48;;;;;;;3.87;2.23;;;;;;;3.42;86.09;98848.47;6271905;28;20630;-72
2021/11/09 06:31:51;;;;;;;6.57;2.60;;;;;;;3.44;86.21;98848.44;6272327;28;20200;-71
2021/11/09 06:34:53;;;;;;;5.43;2.80;;;;;;;3.48;86.75;98861.34;6271727;28;20681;-71
2021/11/09 06:37:55;;;;;;;7.47;3.17;;;;;;;3.52;86.06;98864.69;6272291;28;20218;-72
2021/11/09 06:40:57;;;;;;;3.70;3.10;;;;;;;3.55;86.34;98868.06;6270443;28;20280;-71
2021/11/09 06:43:59;;;;;;;5.60;2.93;;;;;;;3.61;85.68;98870.47;6270606;28;20730;-71
2021/11/09 06:47:02;;;;;;;2.63;2.30;;;;;;;3.69;86.08;98881.50;6272241;28;20194;-71
2021/11/09 06:50:06;;;;;;;3.23;2.27;;;;;;;3.78;85.72;98882.09;6271580;28;20265;-70
2021/11/09 06:53:08;;;;;;;5.53;2.40;;;;;;;3.87;85.72;98887.03;6271663;28;20589;-71
2021/11/09 06:56:10;;;;;;;4.30;2.60;;;;;;;3.96;85.46;98891.94;6271633;28;20696;-71
2021/11/09 06:59:14;;;;;;;4.13;2.63;;;;;;;4.04;85.59;98900.34;6271126;28;20232;-71
2021/11/09 07:02:17;;;;;;;3.60;2.40;;;;;;;4.14;85.00;98900.88;6271705;28;20297;-71
2021/11/09 07:05:20;;;;;;;5.17;2.00;;;;;;;4.25;85.05;98903.97;6271243;28;20268;-71
2021/11/09 07:08:22;;;;;;;4.57;2.30;;;;;;;4.35;85.22;98916.66;6270326;28;20201;-71
2021/11/09 07:11:25;;;;;;;3.30;2.30;;;;;;;4.46;84.58;98913.66;6269659;28;20229;-71
2021/11/09 07:14:27;;;;;;;3.80;2.30;;;;;;;4.58;83.83;98918.44;6270161;28;20202;-70
2021/11/09 07:17:30;;;;;;;3.03;2.47;;;;;;;4.68;83.59;98918.97;6271295;28;20201;-72
2021/11/09 07:20:32;;;;;;;6.10;2.30;;;;;;;4.79;83.60;98912.41;6269205;28;20576;-71
2021/11/09 07:23:34;;;;;;;4.77;2.50;;;;;;;4.94;83.47;98918.00;6271080;28;20272;-71
2021/11/09 07:26:36;;;;;;;4.10;2.30;;;;;;;5.08;82.62;98921.81;6270542;28;20194;-71
2021/11/09 07:29:44;;;;;;;5.13;2.57;;;;;;;5.20;82.08;98926.53;6269808;28;20569;-71
2021/11/09 07:32:46;;;;;;;6.97;2.63;;;;;;;5.33;81.69;98931.28;6269949;28;20662;-72
2021/11/09 07:35:48;;;;;;;3.93;2.30;;;;;;;5.49;81.87;98935.84;6269459;28;20280;-72
2021/11/09 07:38:51;;;;;;;2.93;2.50;;;;;;;5.60;81.45;98932.81;6269114;28;20225;-71
2021/11/09 07:41:53;;;;;;;6.50;3.07;;;;;;;5.69;80.47;98934.25;6270138;28;20352;-72
2021/11/09 07:44:55;;;;;;;7.67;2.80;;;;;;;5.85;80.32;98933.53;6269269;28;20195;-71
2021/11/09 07:47:58;;;;;;;6.93;2.73;;;;;;;5.99;80.09;98934.78;6269877;28;20554;-71
2021/11/09 07:51:00;;;;;;;5.83;3.10;;;;;;;6.09;79.04;98936.91;6269935;28;20245;-71
2021/11/09 07:54:04;;;;;;;5.20;3.30;;;;;;;6.18;78.47;98939.19;6270231;28;20548;-71
2021/11/09 07:57:16;;;;;;;6.77;2.87;;;;;;;6.27;77.91;98946.66;6270031;28;20571;-72
2021/11/09 08:03:35;;;;;;;4.53;2.50;;;;;;;6.52;77.37;98958.69;6269705;28;20596;-72
2021/11/09 08:09:58;;;;;;;5.53;2.57;;;;;;;6.81;76.11;98960.88;6270060;28;20178;-72
2021/11/09 08:13:00;;;;;;;6.87;3.30;;;;;;;6.93;74.48;98967.34;6269196;28;20239;-72
2021/11/09 08:16:02;;;;;;;5.40;2.53;;;;;;;7.07;73.75;98959.72;6268764;28;20734;-71
2021/11/09 08:19:05;;;;;;;7.57;2.83;;;;;;;7.26;73.01;98972.84;6259551;28;20208;-72
2021/11/09 08:22:08;;;;;;;4.50;3.00;;;;;;;7.34;70.68;98971.56;6260718;28;20231;-72
2021/11/09 08:25:10;;;;;;;6.33;2.60;;;;;;;7.53;69.90;98975.94;6269668;28;20566;-72
2021/11/09 08:28:12;;;;;;;3.23;2.50;;;;;;;7.69;69.91;98982.16;6268996;28;20191;-71
2021/11/09 08:31:17;;;;;;;7.33;3.10;;;;;;;7.86;68.83;98982.22;6269556;28;20185;-72
2021/11/09 08:34:22;;;;;;;5.00;2.70;;;;;;;8.08;67.71;98985.53;6269069;28;20650;-71
2021/11/09 08:37:24;;;;;;;3.53;2.53;;;;;;;8.28;67.11;98986.31;6269586;28;20730;-72
2021/11/09 08:40:27;;;;;;;4.90;2.50;;;;;;;8.38;66.16;98988.44;6267328;28;20194;-73
2021/11/09 08:43:32;;;;;;;5.07;2.53;;;;;;;8.50;65.08;98992.19;6269107;28;20740;-72
2021/11/09 08:46:44;;;;;;;5.87;2.90;;;;;;;8.66;65.33;98990.50;6269242;28;20193;-72
2021/11/09 08:49:49;;;;;;;4.47;2.20;;;;;;;8.81;64.01;98997.59;6258793;28;20206;-72
2021/11/09 08:52:55;;;;;;;6.30;2.57;;;;;;;8.93;64.15;98997.88;6258990;28;20564;-72
2021/11/09 09:05:45;;;;;;;4.13;2.30;;;;;;;9.25;61.81;99020.72;6268820;28;20564;-72
2021/11/09 09:08:47;;;;;;;5.60;2.53;;;;;;;9.26;60.81;99019.81;6267647;28;20201;-72
2021/11/09 09:11:50;;;;;;;4.87;2.27;;;;;;;9.32;59.94;99018.59;6266925;28;20274;-71
2021/11/09 09:14:54;;;;;;;4.63;1.93;;;;;;;9.34;60.10;99022.88;6267203;28;20619;-73
2021/11/09 09:17:56;;;;;;;3.03;1.90;;;;;;;9.43;58.88;99029.44;6258778;28;20202;-72
2021/11/09 09:21:08;;;;;;;1.70;1.27;;;;;;;9.50;58.86;99022.88;6262635;28;20233;-71
2021/11/09 09:24:31;;;;;;;3.87;1.80;;;;;;;9.60;58.29;99030.19;6268624;28;20208;-71
2021/11/09 09:28:08;;;;;;;2.87;2.00;;;;;;;9.44;57.82;99039.03;6268229;28;20191;-72
2021/11/09 09:57:20;;;;;;;6.53;2.50;;;;;;;9.05;57.89;99034.97;6268256;28;20660;-72
2021/11/09 10:00:22;;;;;;;8.00;2.23;;;;;;;9.09;58.82;99040.91;6268192;28;20201;-71
2021/11/09 10:03:36;;;;;;;5.93;2.47;;;;;;;9.04;58.29;99038.53;6271093;28;20206;-73
2021/11/09 10:06:45;;;;;;;4.07;2.00;;;;;;;9.04;58.02;99035.88;6271657;28;20195;-76
2021/11/09 10:09:47;;;;;;;3.43;1.90;;;;;;;9.04;58.18;99035.03;6272400;28;20198;-72
2021/11/09 10:13:10;;;;;;;2.37;1.77;;;;;;;9.56;55.65;99030.47;6272734;28;20234;-72
2021/11/09 10:16:15;;;;;;;1.50;1.40;;;;;;;9.63;53.74;99032.69;6271587;28;20199;-72
2021/11/09 10:19:32;;;;;;;1.80;1.37;;;;;;;9.57;53.73;99042.72;6272226;28;20188;-74
2021/11/09 10:22:36;;;;;;;2.17;1.70;;;;;;;9.48;53.94;99038.78;6272548;28;20211;-71
2021/11/09 10:25:39;;;;;;;1.60;0.93;;;;;;;9.46;53.28;99037.19;6272132;28;20201;-73
2021/11/09 10:28:47;;;;;;;1.50;1.00;;;;;;;9.52;53.03;99042.94;6304555;28;20234;-72
2021/11/09 10:31:49;;;;;;;1.03;0.93;;;;;;;9.60;52.36;99042.53;6271811;28;20198;-72
2021/11/09 10:34:52;;;;;;;3.23;1.40;;;;;;;9.79;52.70;99042.38;6272381;28;20679;-72
2021/11/09 10:37:58;;;;;;;1.97;1.10;;;;;;;10.00;52.51;99038.53;6272432;28;20630;-72
2021/11/09 10:41:04;;;;;;;3.30;1.60;;;;;;;10.05;52.12;99038.28;6270248;28;20190;-72
2021/11/09 10:44:09;;;;;;;2.80;1.73;;;;;;;10.09;51.05;99029.25;6262780;28;20223;-72
2021/11/09 10:47:28;;;;;;;3.10;1.60;;;;;;;10.18;50.85;99026.97;6270158;28;20268;-72
2021/11/09 10:50:34;;;;;;;2.53;1.87;;;;;;;10.37;50.98;99024.16;6272119;28;20659;-72
2021/11/09 10:53:45;;;;;;;2.83;1.93;;;;;;;10.78;49.59;99026.16;6270429;28;20264;-73
2021/11/09 10:57:09;;;;;;;1.53;1.30;;;;;;;10.78;49.35;99026.97;6272055;28;20199;-73
2021/11/09 11:00:33;;;;;;;1.40;1.30;;;;;;;10.42;49.65;99032.63;6271817;28;20198;-72
2021/11/09 11:07:06;;;;;;;1.83;1.40;;;;;;;9.95;50.76;99036.19;6271479;28;20737;-72
2021/11/09 11:10:08;;;;;;;1.93;1.73;;;;;;;10.15;50.88;99021.84;6271036;28;20691;-73
2021/11/09 11:13:21;;;;;;;3.23;1.90;;;;;;;10.39;50.73;99024.88;6271138;28;20203;-72
2021/11/09 11:16:26;;;;;;;2.23;1.30;;;;;;;10.81;50.12;99026.81;6269599;28;20567;-72
2021/11/09 11:19:38;;;;;;;2.63;1.50;;;;;;;11.20;47.40;99015.59;6270202;28;20352;-71
2021/11/09 11:22:40;;;;;;;3.20;1.90;;;;;;;11.25;46.70;99017.97;6270438;28;20206;-74
2021/11/09 11:25:42;;;;;;;2.63;1.60;;;;;;;11.26;46.67;99017.91;6269922;28;20533;-72
2021/11/09 11:28:46;;;;;;;2.70;2.00;;;;;;;11.13;47.41;99013.44;6271167;28;20212;-71
2021/11/09 11:31:50;;;;;;;4.37;1.97;;;;;;;11.21;48.37;99011.16;6261485;28;20558;-71
2021/11/09 11:34:54;;;;;;;2.80;1.50;;;;;;;11.69;46.40;99009.91;6244952;28;20237;-73
2021/11/09 11:37:56;;;;;;;2.33;1.53;;;;;;;12.04;46.47;99010.31;6259085;28;20601;-73
2021/11/09 11:41:00;;;;;;;2.47;1.50;;;;;;;12.15;46.07;99007.84;6270943;28;20696;-73
2021/11/09 11:44:05;;;;;;;2.30;1.63;;;;;;;12.07;45.76;98996.91;6270900;28;20208;-71
2021/11/09 11:47:11;;;;;;;2.23;1.40;;;;;;;12.41;45.39;99001.66;6268871;28;20575;-69
2021/11/09 11:50:15;;;;;;;1.33;1.20;;;;;;;12.45;44.03;99002.31;6269315;28;20211;-70
2021/11/09 11:53:41;;;;;;;2.60;1.13;;;;;;;12.79;43.99;99011.47;6245543;28;20655;-71
2021/11/09 11:56:46;;;;;;;2.63;1.23;;;;;;;12.38;43.11;99007.13;6271218;28;20199;-70
2021/11/09 11:59:48;;;;;;;1.90;1.33;;;;;;;12.62;43.12;98998.50;6270617;28;20202;-72
2021/11/09 12:02:50;;;;;;;3.80;1.40;;;;;;;12.69;43.49;99005.09;6268793;28;20611;-73
2021/11/09 12:05:57;;;;;;;2.63;1.50;;;;;;;12.71;43.53;99013.78;6270650;28;20205;-69
2021/11/09 12:08:59;;;;;;;2.27;1.50;;;;;;;12.71;42.54;99003.19;6268758;28;20194;-71
2021/11/09 12:12:22;;;;;;;1.77;1.30;;;;;;;12.43;41.95;99006.84;6268781;28;20225;-72
2021/11/09 12:15:48;;;;;;;1.63;1.30;;;;;;;12.05;43.17;98991.72;6265622;28;20567;-73
2021/11/09 12:18:50;;;;;;;1.20;1.10;;;;;;;12.45;43.44;98994.38;6269912;28;20564;-72
2021/11/09 12:22:05;;;;;;;2.93;1.63;;;;;;;12.13;43.65;98997.34;6269120;28;20210;-72
2021/11/09 12:25:23;;;;;;;1.80;1.47;;;;;;;12.21;43.30;98996.81;6268632;28;20187;-74
2021/11/09 12:28:35;;;;;;;2.73;1.50;;;;;;;12.46;43.38;99001.34;6268387;28;20288;-70
2021/11/09 12:31:40;;;;;;;3.10;1.70;;;;;;;12.81;42.79;98991.00;6267965;28;20227;-71
2021/11/09 12:35:03;;;;;;;1.70;1.30;;;;;;;13.06;41.73;98987.53;6268762;28;20526;-71
2021/11/09 12:38:17;;;;;;;2.77;1.30;;;;;;;12.92;42.14;98989.31;6269711;28;20552;-73
2021/11/09 12:41:27;;;;;;;2.23;2.03;;;;;;;13.23;42.54;98989.88;6269754;28;20220;-74
2021/11/09 12:44:33;;;;;;;4.93;1.80;;;;;;;13.67;40.92;98986.75;6268969;28;20207;-72
2021/11/09 12:47:35;;;;;;;1.97;1.50;;;;;;;14.75;39.85;98981.34;6270115;28;20229;-71
2021/11/09 12:50:44;;;;;;;2.70;1.47;;;;;;;16.20;36.42;98975.94;6267966;28;20224;-72
2021/11/09 12:53:48;;;;;;;2.50;1.63;;;;;;;17.24;33.19;98976.84;6267607;28;20202;-73
2021/11/09 12:56:57;;;;;;;3.47;1.70;;;;;;;18.18;32.62;98972.03;6268928;28;20197;-72
2021/11/09 13:00:07;;;;;;;3.20;1.43;;;;;;;18.46;32.57;98963.22;6269035;28;20662;-72
2021/11/09 13:03:34;;;;;;;2.17;1.67;;;;;;;17.75;33.22;98975.09;6268922;28;20273;-72
2021/11/09 13:06:55;;;;;;;3.37;1.87;;;;;;;15.46;36.27;98978.38;6269018;28;20294;-71
2021/11/09 13:10:09;;;;;;;3.23;1.70;;;;;;;13.94;40.05;98982.06;6267620;28;20210;-72
2021/11/09 13:13:12;;;;;;;2.70;2.10;;;;;;;12.92;42.67;98983.19;6268441;28;20183;-72
2021/11/09 13:16:21;;;;;;;4.03;1.93;;;;;;;12.47;43.65;98995.13;6267185;28;20289;-72
2021/11/09 13:19:37;;;;;;;2.80;1.70;;;;;;;11.61;45.90;98989.22;6244197;28;20232;-71
2021/11/09 13:23:00;;;;;;;3.20;1.77;;;;;;;11.13;47.78;98997.59;6266869;28;20735;-72
2021/11/09 13:26:02;;;;;;;2.37;1.53;;;;;;;10.89;48.42;98995.50;6267121;28;20207;-71
2021/11/09 13:29:08;;;;;;;3.43;1.90;;;;;;;10.79;49.24;98994.34;6267642;28;20366;-72
2021/11/09 13:32:10;;;;;;;3.07;1.97;;;;;;;10.59;49.53;98990.25;6267335;28;20284;-73
2021/11/09 13:35:18;;;;;;;4.73;2.43;;;;;;;10.35;50.60;98989.94;6266890;28;20204;-73
2021/11/09 13:38:23;;;;;;;2.77;1.90;;;;;;;10.11;50.99;98991.31;6267815;28;20261;-72
2021/11/09 13:41:32;;;;;;;2.87;2.23;;;;;;;9.95;51.22;98991.34;6268093;28;20187;-72
2021/11/09 13:44:34;;;;;;;8.50;2.60;;;;;;;9.83;50.85;99001.72;6267580;28;20675;-71
2021/11/09 13:47:38;;;;;;;5.50;2.33;;;;;;;9.79;51.34;99000.19;6268121;28;20195;-71
2021/11/09 13:50:41;;;;;;;2.27;2.10;;;;;;;9.62;51.94;98990.59;6250296;28;20207;-72
2021/11/09 13:53:49;;;;;;;3.57;1.80;;;;;;;9.56;51.81;98990.94;6268286;28;20647;-71
2021/11/09 13:56:53;;;;;;;5.83;2.07;;;;;;;9.48;53.05;98993.97;6267722;28;20240;-72
2021/11/09 13:59:55;;;;;;;2.20;1.93;;;;;;;9.35;53.67;98995.59;6267467;28;20195;-72
2021/11/09 14:04:01;;;;;;;5.17;2.20;;;;;;;9.31;52.75;99007.22;6266510;28;20210;-71
2021/11/09 14:07:08;;;;;;;2.10;1.80;;;;;;;9.29;52.91;99002.97;6266870;28;20797;-72
2021/11/09 14:13:37;;;;;;;2.33;1.70;;;;;;;9.23;54.02;99005.00;6267247;28;20679;-71
2021/11/09 14:16:51;;;;;;;3.30;2.10;;;;;;;9.15;54.08;99006.34;6267488;28;20192;-71
2021/11/09 14:19:53;;;;;;;2.80;2.00;;;;;;;9.03;54.55;99002.59;6266518;28;20202;-71
2021/11/09 14:23:04;;;;;;;3.90;1.80;;;;;;;8.99;54.80;99010.72;6267095;28;20672;-72
2021/11/09 14:26:22;;;;;;;2.97;1.87;;;;;;;8.93;55.05;99008.41;6266618;28;20207;-71
2021/11/09 14:29:25;;;;;;;3.20;2.20;;;;;;;8.85;55.47;99011.44;6265828;28;20207;-71
2021/11/09 14:32:33;;;;;;;2.53;1.80;;;;;;;8.71;56.38;99006.03;6267468;28;20176;-71
2021/11/09 14:35:35;;;;;;;2.10;1.70;;;;;;;8.59;56.22;99004.03;6267207;28;20251;-71
2021/11/09 14:38:38;;;;;;;4.83;1.80;;;;;;;8.48;56.73;99015.13;6266103;28;20292;-72
2021/11/09 14:42:02;;;;;;;1.87;1.40;;;;;;;8.36;57.98;99019.22;6267434;28;20228;-72
2021/11/09 14:45:12;;;;;;;2.67;1.60;;;;;;;8.24;58.87;99016.31;6263522;28;20690;-71
2021/11/09 14:48:19;;;;;;;2.50;1.53;;;;;;;8.11;59.63;99018.69;6261229;28;20198;-71
2021/11/09 14:51:30;;;;;;;1.90;1.40;;;;;;;8.01;60.37;99031.41;6253117;28;20270;-73
2021/11/09 14:54:35;;;;;;;2.37;1.20;;;;;;;7.87;60.28;99026.00;6292620;28;20195;-72
2021/11/09 14:57:41;;;;;;;3.23;1.60;;;;;;;7.73;60.89;99020.53;6271927;28;20195;-70
2021/11/09 15:00:43;;;;;;;2.47;1.23;;;;;;;7.55;61.48;99009.13;6271804;28;20203;-71
2021/11/09 15:04:00;;;;;;;2.30;1.10;;;;;;;7.38;61.98;99019.56;6270513;28;20712;-71
2021/11/09 15:13:33;;;;;;;3.50;1.20;;;;;;;6.89;63.90;99013.88;6271170;28;20695;-71
2021/11/09 15:29:48;;;;;;;2.10;1.30;;;;;;;6.18;65.18;99014.34;6271120;28;20661;-71
2021/11/09 15:32:50;;;;;;;1.33;1.20;;;;;;;6.04;65.54;99014.03;6270088;28;20223;-71
2021/11/09 15:36:26;;;;;;;1.40;1.30;;;;;;;5.91;65.13;99017.16;6270857;28;20682;-71
2021/11/09 15:39:29;;;;;;;1.57;1.30;;;;;;;5.68;65.73;99017.19;6271341;28;20202;-71
2021/11/09 15:42:31;;;;;;;1.77;1.00;;;;;;;5.52;66.86;99016.06;6270545;28;20742;-72
2021/11/09 15:45:33;;;;;;;3.83;1.40;;;;;;;5.37;66.90;99017.50;6271398;28;20195;-71
2021/11/09 15:48:36;;;;;;;1.40;1.27;;;;;;;5.27;66.93;99023.16;6269780;28;20271;-70
2021/11/09 15:51:40;;;;;;;1.30;1.20;;;;;;;5.16;67.85;99020.94;6269208;28;20293;-71
2021/11/09 15:54:43;;;;;;;2.40;1.47;;;;;;;5.04;68.07;99022.22;6270989;28;20734;-70
2021/11/09 15:57:45;;;;;;;2.33;1.50;;;;;;;5.00;67.64;99019.78;6268868;28;20203;-70
2021/11/09 16:00:48;;;;;;;2.10;1.50;;;;;;;4.85;67.86;99022.94;6268748;28;20667;-70
2021/11/09 16:03:51;;;;;;;1.57;1.40;;;;;;;4.74;68.89;99024.19;6269801;28;20241;-72
2021/11/09 16:06:53;;;;;;;1.83;1.60;;;;;;;4.67;68.72;99017.47;6268772;28;20697;-70
2021/11/09 16:09:57;;;;;;;2.53;1.50;;;;;;;4.61;69.92;99016.81;6269438;28;20663;-71
2021/11/09 16:12:59;;;;;;;2.10;1.57;;;;;;;4.58;69.83;99030.88;6269553;28;20595;-71
2021/11/09 16:16:01;;;;;;;2.87;1.83;;;;;;;4.52;70.42;99024.97;6269264;28;20235;-71
2021/11/09 16:19:03;;;;;;;1.70;1.47;;;;;;;4.48;69.98;99020.78;6269975;28;20558;-70
2021/11/09 16:22:09;;;;;;;2.40;1.80;;;;;;;4.40;70.94;99014.03;6270254;28;20694;-71
2021/11/09 16:25:14;;;;;;;2.03;1.40;;;;;;;4.34;71.01;99022.09;6268722;28;20636;-71
2021/11/09 16:28:17;;;;;;;1.63;1.40;;;;;;;4.33;70.79;99025.59;6269650;28;20741;-71
2021/11/09 16:31:22;;;;;;;1.57;1.47;;;;;;;4.32;71.34;99030.88;6260143;28;20203;-71
2021/11/09 16:34:29;;;;;;;3.60;1.40;;;;;;;4.28;71.31;99024.94;6262461;28;20202;-72
2021/11/09 16:37:32;;;;;;;2.27;1.57;;;;;;;4.27;71.36;99024.97;6270050;28;20242;-71
2021/11/09 16:40:37;;;;;;;3.47;1.90;;;;;;;4.23;71.67;99021.59;6301711;28;20207;-71
2021/11/09 16:46:58;;;;;;;1.67;1.47;;;;;;;4.25;71.78;99024.16;6268339;28;20200;-71
2021/11/09 16:53:08;;;;;;;5.07;2.00;;;;;;;4.21;72.43;99019.94;6269230;28;20200;-71
2021/11/09 16:56:40;;;;;;;1.90;1.50;;;;;;;4.58;70.52;99035.25;6268070;28;20774;-72
2021/11/09 17:10:08;;;;;;;2.40;1.50;;;;;;;4.90;69.11;99008.78;6265699;28;20218;-71
2021/11/09 18:22:50;;;;;;;3.00;1.60;;;;;;;5.98;61.66;98991.56;6270492;28;20293;-72
2021/11/09 18:25:52;;;;;;;2.07;1.53;;;;;;;6.00;61.84;98992.34;6272664;28;20229;-71
2021/11/09 18:28:54;;;;;;;3.80;1.50;;;;;;;5.79;63.07;98993.19;6272791;28;20196;-71